Time;durP1;ratioP1;P1;durP2;ratioP2;P2;SDS_P1;SDS_P2;PMS_P1;PMS_P2;Temp;Humidity;BMP_temperature;BMP_pressure;BME280_temperature;BME280_humidity;BME280_pressure;Samples;Min_cycle;Max_cycle;Signal;HPM_P1;HPM_P2
2023/09/10 00:00:13;;;;;;;8.95;7.53;;;22.70;70.40;;;;;;5032479;28;20128;-29
2023/09/10 00:02:39;;;;;;;8.35;7.40;;;23.30;86.90;;;;;;5032938;28;20387;-29
2023/09/10 00:05:07;;;;;;;8.70;7.80;;;23.10;73.20;;;;;;5032521;28;20128;-30
2023/09/10 00:07:35;;;;;;;8.73;7.88;;;22.70;70.40;;;;;;5032279;28;20068;-31
2023/09/10 00:10:03;;;;;;;8.27;7.47;;;;;;;;;;5032414;28;20140;-32
2023/09/10 00:12:30;;;;;;;9.75;8.10;;;;;;;;;;5032496;28;20049;-30
2023/09/10 00:14:57;;;;;;;8.05;7.25;;;;;;;;;;5032138;28;20132;-30
2023/09/10 00:17:23;;;;;;;8.35;7.55;;;22.40;86.60;;;;;;5032116;28;20515;-29
2023/09/10 00:19:50;;;;;;;8.35;7.55;;;;;;;;;;5031520;28;20129;-29
2023/09/10 00:22:17;;;;;;;8.18;7.35;;;22.10;86.50;;;;;;5032092;28;20128;-29
2023/09/10 00:24:45;;;;;;;7.18;6.47;;;22.50;86.00;;;;;;5032252;28;20132;-29
2023/09/10 00:27:13;;;;;;;7.80;7.00;;;22.40;85.90;;;;;;5031943;28;20140;-29
2023/09/10 00:29:40;;;;;;;6.85;6.25;;;22.60;86.30;;;;;;5031937;28;20125;-29
2023/09/10 00:32:07;;;;;;;7.43;6.72;;;;;;;;;;5031964;28;20128;-29
2023/09/10 00:34:34;;;;;;;7.32;6.60;;;21.90;82.90;;;;;;5031989;28;20124;-29
2023/09/10 00:37:01;;;;;;;7.35;6.65;;;;;;;;;;5031393;28;20045;-29
2023/09/10 00:39:28;;;;;;;7.20;6.50;;;23.10;86.60;;;;;;5031975;28;20137;-29
2023/09/10 00:41:56;;;;;;;7.63;6.88;;;22.60;86.70;;;;;;5032124;28;20128;-29
2023/09/10 00:44:23;;;;;;;8.18;7.30;;;23.00;86.10;;;;;;5046235;28;20690;-29
2023/09/10 00:46:50;;;;;;;8.20;7.40;;;;;;;;;;5036547;28;20056;-30
2023/09/10 00:49:17;;;;;;;8.00;7.20;;;22.70;86.60;;;;;;5031482;28;20736;-29
2023/09/10 00:51:44;;;;;;;7.85;7.05;;;23.70;77.10;;;;;;5032020;28;20045;-30
2023/09/10 00:54:10;;;;;;;7.40;6.70;;;22.20;86.30;;;;;;5031951;28;20136;-29
2023/09/10 00:56:38;;;;;;;7.07;6.38;;;;;;;;;;5031902;28;20632;-29
2023/09/10 00:59:06;;;;;;;7.63;6.85;;;22.70;86.00;;;;;;5031324;28;20149;-29
2023/09/10 01:01:33;;;;;;;7.55;6.85;;;;;;;;;;5031489;28;20140;-29
2023/09/10 01:03:59;;;;;;;7.30;6.60;;;22.10;86.50;;;;;;5031494;28;20732;-29
2023/09/10 01:06:26;;;;;;;6.78;6.18;;;22.70;75.90;;;;;;5031857;28;20133;-30
2023/09/10 01:08:53;;;;;;;7.35;6.65;;;22.20;86.00;;;;;;5031459;28;20145;-29
2023/09/10 01:11:23;;;;;;;7.28;6.57;;;22.70;86.80;;;;;;5031764;28;20120;-29
2023/09/10 01:13:53;;;;;;;7.07;6.38;;;23.20;86.70;;;;;;5031692;28;20580;-29
2023/09/10 01:16:24;;;;;;;7.50;6.72;;;22.60;70.30;;;;;;5031521;28;20168;-29
2023/09/10 01:18:52;;;;;;;6.95;6.32;;;22.60;70.30;;;;;;5031087;28;20577;-29
2023/09/10 01:21:41;;;;;;;7.35;6.65;;;22.00;85.60;;;;;;5031513;28;20128;-29
2023/09/10 01:24:13;;;;;;;7.32;6.63;;;23.50;87.30;;;;;;5031773;28;20081;-29
2023/09/10 01:26:42;;;;;;;6.90;6.20;;;22.60;70.30;;;;;;5031062;28;20076;-29
2023/09/10 01:29:12;;;;;;;7.82;6.32;;;22.60;70.30;;;;;;5030926;28;20077;-32
2023/09/10 01:31:39;;;;;;;7.22;6.53;;;22.60;70.30;;;;;;5031872;28;20421;-31
2023/09/10 01:34:05;;;;;;;7.47;6.78;;;21.50;85.40;;;;;;5035503;28;20129;-29
2023/09/10 01:36:35;;;;;;;7.00;6.28;;;23.20;78.10;;;;;;5034750;28;20136;-30
2023/09/10 01:39:04;;;;;;;7.78;6.47;;;22.50;70.20;;;;;;5035165;28;20132;-29
2023/09/10 01:41:31;;;;;;;6.75;6.15;;;22.50;71.90;;;;;;5035253;28;20076;-30
2023/09/10 01:43:59;;;;;;;7.50;6.80;;;23.80;86.60;;;;;;5045803;28;20143;-29
2023/09/10 01:46:26;;;;;;;7.38;6.40;;;22.90;86.10;;;;;;5055177;28;20136;-29
2023/09/10 01:48:53;;;;;;;7.43;6.72;;;23.60;85.80;;;;;;5055047;28;20128;-29
2023/09/10 01:51:20;;;;;;;7.22;6.53;;;;;;;;;;5055055;28;20057;-30
2023/09/10 01:53:47;;;;;;;7.07;6.40;;;22.30;85.90;;;;;;5054694;28;20135;-29
2023/09/10 01:56:14;;;;;;;7.60;6.80;;;21.50;80.70;;;;;;5054835;28;20055;-29
2023/09/10 01:58:40;;;;;;;7.30;6.60;;;22.20;83.60;;;;;;5052905;28;20128;-29
2023/09/10 02:01:08;;;;;;;7.63;6.82;;;22.20;86.10;;;;;;5015134;28;20132;-29
2023/09/10 02:03:35;;;;;;;7.18;6.07;;;23.10;86.60;;;;;;5015117;28;20141;-29
2023/09/10 02:06:03;;;;;;;8.27;6.65;;;22.30;72.80;;;;;;5014757;28;20129;-30
2023/09/10 02:08:30;;;;;;;7.88;6.80;;;;;;;;;;5014875;28;20049;-31
2023/09/10 02:10:57;;;;;;;7.30;6.60;;;22.90;86.50;;;;;;5014899;28;20128;-29
2023/09/10 02:13:23;;;;;;;7.70;7.00;;;22.40;86.60;;;;;;5015029;28;20129;-29
2023/09/10 02:15:50;;;;;;;6.85;6.15;;;;;;;;;;5023808;28;20533;-29
2023/09/10 02:18:19;;;;;;;7.05;6.40;;;22.30;71.20;;;;;;5034548;28;20096;-29
2023/09/10 02:20:45;;;;;;;7.32;6.63;;;21.90;72.00;;;;;;5034320;28;20187;-29
2023/09/10 02:23:12;;;;;;;7.28;6.57;;;;;;;;;;5034784;28;20140;-32
2023/09/10 02:25:39;;;;;;;7.78;6.95;;;21.90;85.40;;;;;;5034047;28;20148;-29
2023/09/10 02:28:06;;;;;;;7.75;6.95;;;22.50;85.90;;;;;;5033963;28;20041;-29
2023/09/10 02:30:33;;;;;;;7.32;6.63;;;21.40;80.00;;;;;;5034458;28;20092;-29
2023/09/10 02:32:59;;;;;;;8.18;6.53;;;22.50;86.70;;;;;;5034166;28;20116;-29
2023/09/10 02:35:27;;;;;;;6.60;6.00;;;22.50;70.10;;;;;;5034096;28;20600;-32
2023/09/10 02:37:55;;;;;;;7.03;6.03;;;;;;;;;;5033632;28;20193;-29
2023/09/10 02:40:22;;;;;;;6.30;5.70;;;;;;;;;;5034022;28;20132;-29
2023/09/10 02:42:48;;;;;;;7.22;6.25;;;22.50;85.80;;;;;;5034777;28;20128;-29
2023/09/10 02:45:15;;;;;;;6.85;6.15;;;;;;;;;;5053766;28;20132;-29
2023/09/10 02:47:43;;;;;;;7.45;5.90;;;;;;;;;;5052439;28;20052;-29
2023/09/10 02:50:10;;;;;;;6.20;5.60;;;22.10;82.30;;;;;;5032865;28;20465;-30
2023/09/10 02:52:39;;;;;;;7.90;5.90;;;22.50;70.10;;;;;;5033892;28;20524;-31
2023/09/10 02:55:07;;;;;;;7.03;6.07;;;;;;;;;;5033828;28;20049;-31
2023/09/10 02:57:34;;;;;;;6.72;6.03;;;22.90;86.00;;;;;;5033906;28;20076;-29
2023/09/10 03:00:00;;;;;;;6.68;6.05;;;22.30;85.90;;;;;;5033709;28;20133;-29
2023/09/10 03:02:27;;;;;;;6.55;5.95;;;;;;;;;;5034049;28;20442;-31
2023/09/10 03:04:54;;;;;;;6.93;6.18;;;22.40;85.70;;;;;;5033359;28;20125;-29
2023/09/10 03:07:21;;;;;;;6.35;5.72;;;22.50;86.50;;;;;;5033913;28;20449;-29
2023/09/10 03:09:50;;;;;;;7.13;5.68;;;22.70;70.20;;;;;;5033344;28;20128;-31
2023/09/10 03:12:21;;;;;;;6.65;5.95;;;22.00;82.20;;;;;;5033848;28;20120;-29
2023/09/10 03:14:48;;;;;;;7.80;6.20;;;;;;;;;;5033580;28;20049;-30
2023/09/10 03:17:15;;;;;;;7.00;5.90;;;;;;;;;;5033216;28;20149;-30
2023/09/10 03:19:43;;;;;;;8.48;6.22;;;;;;;;;;5033403;28;20130;-29
2023/09/10 03:22:09;;;;;;;6.70;6.00;;;22.90;86.10;;;;;;5032857;28;20073;-29
2023/09/10 03:24:36;;;;;;;6.50;5.90;;;22.50;72.20;;;;;;5033402;28;20077;-30
2023/09/10 03:27:05;;;;;;;6.53;5.93;;;23.10;72.50;;;;;;5033175;28;20137;-29
2023/09/10 03:29:32;;;;;;;6.22;5.63;;;22.20;85.80;;;;;;5032915;28;20111;-29
2023/09/10 03:31:59;;;;;;;7.05;6.35;;;;;;;;;;5033284;28;20111;-29
2023/09/10 03:34:26;;;;;;;6.35;5.75;;;22.20;85.80;;;;;;5033371;28;20137;-29
2023/09/10 03:36:53;;;;;;;6.32;5.72;;;21.90;77.10;;;;;;5032340;28;20124;-30
2023/09/10 03:39:19;;;;;;;6.65;5.95;;;22.50;84.40;;;;;;5032967;28;20128;-29
2023/09/10 03:41:46;;;;;;;6.70;6.00;;;21.70;85.40;;;;;;5032890;28;20138;-29
2023/09/10 03:44:14;;;;;;;6.28;5.68;;;22.30;70.80;;;;;;5045979;28;20124;-30
2023/09/10 03:46:41;;;;;;;5.93;5.32;;;;;;;;;;5053073;28;20127;-30
2023/09/10 03:49:08;;;;;;;5.75;5.20;;;22.10;85.60;;;;;;5052682;28;20132;-29
2023/09/10 03:51:34;;;;;;;6.07;5.47;;;23.40;86.20;;;;;;5053004;28;20138;-29
2023/09/10 03:54:01;;;;;;;5.82;5.22;;;22.50;77.80;;;;;;5043204;28;20132;-30
2023/09/10 03:56:28;;;;;;;5.78;5.13;;;;;;;;;;5032384;28;20045;-29
2023/09/10 03:58:55;;;;;;;5.10;4.60;;;;;;;;;;5032493;28;20068;-30
2023/09/10 04:01:23;;;;;;;6.03;5.43;;;22.20;86.30;;;;;;5032792;28;20524;-29
2023/09/10 04:03:50;;;;;;;7.40;5.10;;;;;;;;;;5032747;28;20140;-29
2023/09/10 04:06:17;;;;;;;5.35;4.85;;;;;;;;;;5032704;28;20133;-31
2023/09/10 04:08:44;;;;;;;5.30;4.80;;;22.90;86.70;;;;;;5032215;28;20136;-29
2023/09/10 04:11:11;;;;;;;5.60;4.90;;;22.30;86.00;;;;;;5032146;28;20145;-28
2023/09/10 04:13:38;;;;;;;5.50;5.00;;;22.10;74.70;;;;;;5032726;28;20045;-29
2023/09/10 04:16:05;;;;;;;5.85;5.20;;;;;;;;;;5032417;28;20101;-29
2023/09/10 04:18:34;;;;;;;5.47;4.97;;;22.30;69.80;;;;;;5031656;28;20465;-30
2023/09/10 04:21:03;;;;;;;5.30;4.80;;;22.50;86.20;;;;;;5032384;28;20114;-29
2023/09/10 04:23:30;;;;;;;5.28;4.78;;;;;;;;;;5032319;28;20515;-30
2023/09/10 04:25:57;;;;;;;5.32;4.60;;;22.70;86.60;;;;;;5031976;28;20140;-29
2023/09/10 04:28:24;;;;;;;5.32;4.60;;;;;;;;;;5031907;28;20136;-31
2023/09/10 04:30:51;;;;;;;5.20;4.70;;;22.00;85.70;;;;;;5032307;28;20132;-29
2023/09/10 04:33:18;;;;;;;5.20;4.70;;;;;;;;;;5032213;28;20064;-31
2023/09/10 04:35:50;;;;;;;5.20;4.70;;;22.30;85.60;;;;;;5032009;28;20120;-29
2023/09/10 04:38:16;;;;;;;5.00;4.50;;;21.90;74.70;;;;;;5032008;28;20060;-30
2023/09/10 04:40:43;;;;;;;5.22;4.72;;;22.10;84.30;;;;;;5031915;28;20132;-29
2023/09/10 04:43:10;;;;;;;5.30;4.57;;;22.40;86.50;;;;;;5036177;28;20119;-29
2023/09/10 04:45:37;;;;;;;5.03;4.53;;;;;;;;;;5051728;28;20084;-30
2023/09/10 04:48:04;;;;;;;4.55;4.15;;;;;;;;;;5051774;28;20140;-29
2023/09/10 04:50:31;;;;;;;4.75;4.32;;;21.80;73.40;;;;;;5051649;28;20543;-30
2023/09/10 04:53:00;;;;;;;5.13;4.05;;;21.80;77.20;;;;;;5051639;28;20095;-29
2023/09/10 04:55:27;;;;;;;4.63;4.22;;;;;;;;;;5051756;28;20131;-30
2023/09/10 04:57:54;;;;;;;4.55;4.15;;;23.00;86.00;;;;;;5049606;28;20127;-29
2023/09/10 05:00:21;;;;;;;4.35;3.95;;;;;;;;;;5031991;28;20120;-29
2023/09/10 05:02:48;;;;;;;4.32;3.92;;;22.40;85.50;;;;;;5031840;28;20128;-29
2023/09/10 05:05:15;;;;;;;4.57;4.18;;;22.60;86.00;;;;;;5031792;28;20136;-29
2023/09/10 05:07:42;;;;;;;4.50;4.10;;;22.30;85.50;;;;;;5031095;28;20049;-29
2023/09/10 05:10:11;;;;;;;4.50;4.10;;;22.10;85.30;;;;;;5032115;28;20132;-29
2023/09/10 05:12:38;;;;;;;4.25;3.85;;;22.00;84.70;;;;;;5031822;28;20216;-29
2023/09/10 05:15:05;;;;;;;4.63;4.22;;;22.10;78.40;;;;;;5031458;28;20124;-29
2023/09/10 05:17:32;;;;;;;4.70;4.30;;;22.00;85.20;;;;;;5030899;28;20133;-29
2023/09/10 05:19:59;;;;;;;5.63;4.20;;;21.90;85.90;;;;;;5030998;28;20141;-29
2023/09/10 05:22:26;;;;;;;5.00;4.50;;;;;;;;;;5031551;28;20132;-31
2023/09/10 05:24:52;;;;;;;4.32;3.92;;;21.90;85.10;;;;;;5031728;28;20134;-29
2023/09/10 05:27:20;;;;;;;4.30;3.90;;;22.10;85.20;;;;;;5031580;28;20626;-29
2023/09/10 05:29:47;;;;;;;4.55;4.15;;;22.30;79.30;;;;;;5031499;28;20136;-29
2023/09/10 05:32:14;;;;;;;4.63;4.22;;;22.30;73.90;;;;;;5031374;28;20479;-30
2023/09/10 05:34:41;;;;;;;6.20;4.20;;;21.80;80.30;;;;;;5031732;28;20196;-30
2023/09/10 05:37:07;;;;;;;4.53;4.13;;;21.70;85.00;;;;;;5031262;28;20458;-29
2023/09/10 05:39:34;;;;;;;4.90;4.40;;;;;;;;;;5031559;28;20136;-31
2023/09/10 05:42:01;;;;;;;4.78;4.38;;;22.40;85.60;;;;;;5031569;28;20140;-29
2023/09/10 05:44:29;;;;;;;4.80;4.40;;;22.30;85.20;;;;;;5046611;28;20053;-29
2023/09/10 05:46:56;;;;;;;4.72;4.32;;;21.90;72.80;;;;;;5045283;28;20124;-30
2023/09/10 05:49:23;;;;;;;4.88;4.38;;;21.70;78.10;;;;;;5031165;28;20130;-30
2023/09/10 05:51:49;;;;;;;4.95;4.55;;;21.90;85.30;;;;;;5030793;28;20124;-29
2023/09/10 05:54:16;;;;;;;5.28;4.78;;;22.00;84.90;;;;;;5031044;28;20132;-29
2023/09/10 05:56:43;;;;;;;5.22;4.40;;;21.80;74.20;;;;;;5031330;28;20132;-30
2023/09/10 05:59:09;;;;;;;5.22;4.72;;;21.30;85.50;;;;;;5031071;28;20132;-29
2023/09/10 06:01:37;;;;;;;4.68;4.28;;;21.30;85.20;;;;;;5031177;28;20125;-29
2023/09/10 06:04:05;;;;;;;4.70;4.30;;;22.10;69.10;;;;;;5031404;28;20054;-30
2023/09/10 06:06:32;;;;;;;4.90;4.50;;;22.60;86.20;;;;;;5028252;28;20085;-29
2023/09/10 06:08:59;;;;;;;4.80;4.40;;;;;;;;;;5021487;28;20054;-29
2023/09/10 06:11:25;;;;;;;5.07;4.60;;;22.10;84.90;;;;;;5023424;28;20124;-29
2023/09/10 06:13:52;;;;;;;4.63;4.22;;;21.60;85.30;;;;;;5022429;28;20095;-29
2023/09/10 06:16:19;;;;;;;4.88;4.47;;;;;;;;;;5031138;28;20140;-32
2023/09/10 06:18:47;;;;;;;4.60;4.20;;;23.10;85.60;;;;;;5031546;28;20133;-29
2023/09/10 06:21:14;;;;;;;4.90;4.25;;;22.30;86.00;;;;;;5034756;28;20156;-30
2023/09/10 06:23:41;;;;;;;4.65;4.25;;;21.80;85.70;;;;;;5034639;28;20137;-29
2023/09/10 06:26:08;;;;;;;4.55;4.15;;;;;;;;;;5033172;28;20488;-31
2023/09/10 06:28:34;;;;;;;4.57;4.18;;;22.20;74.00;;;;;;5034445;28;20152;-29
2023/09/10 06:31:01;;;;;;;4.47;4.07;;;22.20;86.00;;;;;;5033859;28;20124;-29
2023/09/10 06:33:28;;;;;;;4.50;4.10;;;21.80;74.70;;;;;;5034755;28;20449;-29
2023/09/10 06:35:56;;;;;;;4.70;4.30;;;21.70;85.20;;;;;;5033370;28;20049;-29
2023/09/10 06:38:23;;;;;;;4.28;3.88;;;21.90;85.40;;;;;;5034391;28;20053;-29
2023/09/10 06:40:51;;;;;;;4.43;4.03;;;21.80;85.00;;;;;;5034344;28;20132;-29
2023/09/10 06:43:17;;;;;;;4.50;4.00;;;21.50;85.30;;;;;;5039552;28;20086;-29
2023/09/10 06:45:44;;;;;;;4.35;3.95;;;21.90;75.80;;;;;;5054298;28;20135;-29
2023/09/10 06:48:11;;;;;;;4.45;4.05;;;21.80;85.40;;;;;;5054075;28;20127;-29
2023/09/10 06:50:37;;;;;;;4.10;3.70;;;22.70;85.60;;;;;;5053577;28;20147;-29
2023/09/10 06:53:06;;;;;;;4.35;3.95;;;21.90;69.60;;;;;;5034006;28;20144;-30
2023/09/10 06:55:32;;;;;;;3.78;3.47;;;23.00;72.70;;;;;;5028019;28;20133;-30
2023/09/10 06:57:59;;;;;;;4.10;3.70;;;21.90;85.10;;;;;;5033958;28;20133;-29
2023/09/10 07:00:26;;;;;;;3.90;3.60;;;22.00;85.40;;;;;;5034229;28;20124;-29
2023/09/10 07:02:53;;;;;;;4.15;3.75;;;;;;;;;;5033703;28;20132;-29
2023/09/10 07:05:20;;;;;;;3.60;3.30;;;22.40;86.30;;;;;;5033713;28;20152;-29
2023/09/10 07:07:53;;;;;;;3.70;3.40;;;;;;;;;;5033564;28;20124;-30
2023/09/10 07:10:21;;;;;;;3.97;3.60;;;21.90;85.20;;;;;;5033676;28;20072;-29
2023/09/10 07:12:47;;;;;;;4.03;3.63;;;21.80;78.90;;;;;;5033982;28;20132;-29
2023/09/10 07:15:14;;;;;;;4.30;3.90;;;22.80;85.70;;;;;;5033612;28;20156;-29
2023/09/10 07:17:41;;;;;;;3.72;3.42;;;;;;;;;;5033406;28;20128;-30
2023/09/10 07:20:09;;;;;;;3.55;3.15;;;21.10;71.40;;;;;;5033586;28;20141;-29
2023/09/10 07:22:36;;;;;;;4.28;3.88;;;21.80;85.20;;;;;;5033572;28;20045;-29
2023/09/10 07:25:03;;;;;;;4.43;4.03;;;21.70;85.00;;;;;;5032045;28;20124;-29
2023/09/10 07:27:31;;;;;;;3.92;3.60;;;22.30;74.40;;;;;;5027660;28;20042;-29
2023/09/10 07:29:57;;;;;;;4.20;3.75;;;22.00;72.60;;;;;;5031907;28;20132;-29
2023/09/10 07:32:24;;;;;;;3.97;3.58;;;;;;;;;;5029820;28;20076;-31
2023/09/10 07:34:51;;;;;;;4.63;4.10;;;;;;;;;;5030449;28;20140;-31
2023/09/10 07:37:18;;;;;;;5.25;3.60;;;21.80;85.40;;;;;;5029824;28;20121;-31
2023/09/10 07:39:45;;;;;;;4.40;3.88;;;23.30;86.20;;;;;;5032687;28;20132;-31
2023/09/10 07:42:12;;;;;;;4.20;3.80;;;;;;;;;;5032332;28;20129;-30
2023/09/10 07:44:40;;;;;;;4.18;3.40;;;22.60;86.70;;;;;;5033480;28;20053;-31
2023/09/10 07:47:07;;;;;;;3.88;3.55;;;22.00;86.50;;;;;;5032013;28;20068;-31
2023/09/10 07:49:34;;;;;;;3.50;3.20;;;;;;;;;;5030684;28;20236;-30
2023/09/10 07:52:03;;;;;;;3.95;3.55;;;21.90;85.80;;;;;;5029161;28;20121;-31
2023/09/10 07:54:30;;;;;;;3.83;3.42;;;22.10;85.60;;;;;;5029919;28;20060;-31
2023/09/10 07:56:56;;;;;;;3.83;3.45;;;22.50;83.50;;;;;;5032838;28;20133;-31
2023/09/10 07:59:23;;;;;;;3.80;3.40;;;22.20;85.60;;;;;;5039293;28;20128;-31
2023/09/10 08:01:51;;;;;;;5.80;3.63;;;22.90;86.20;;;;;;5047626;28;20124;-31
2023/09/10 08:04:18;;;;;;;3.90;3.30;;;22.10;85.60;;;;;;5021957;28;20134;-31
2023/09/10 08:06:45;;;;;;;3.95;3.55;;;21.10;76.80;;;;;;5025929;28;20810;-31
2023/09/10 08:09:11;;;;;;;3.72;3.40;;;21.90;85.50;;;;;;5026545;28;20125;-31
2023/09/10 08:11:38;;;;;;;3.95;3.55;;;;;;;;;;5022081;28;20076;-32
2023/09/10 08:14:05;;;;;;;3.60;3.25;;;22.00;85.60;;;;;;5030088;28;20095;-31
2023/09/10 08:16:32;;;;;;;3.95;3.55;;;21.90;86.20;;;;;;5022293;28;20125;-31
2023/09/10 08:19:00;;;;;;;3.47;3.08;;;22.20;85.70;;;;;;5028236;28;20049;-31
2023/09/10 08:21:27;;;;;;;3.72;3.28;;;21.20;85.30;;;;;;5021025;28;20132;-31
2023/09/10 08:23:53;;;;;;;3.47;3.17;;;22.10;86.10;;;;;;5020955;28;20128;-31
2023/09/10 08:26:20;;;;;;;3.42;2.88;;;22.60;86.00;;;;;;5032070;28;20060;-31
2023/09/10 08:28:47;;;;;;;3.40;3.08;;;;;;;;;;5032177;28;20133;-31
2023/09/10 08:31:14;;;;;;;3.05;2.75;;;22.00;86.50;;;;;;5032507;28;20136;-31
2023/09/10 08:33:40;;;;;;;3.00;2.70;;;22.50;86.60;;;;;;5032186;28;20129;-31
2023/09/10 08:36:08;;;;;;;2.95;2.65;;;22.10;69.90;;;;;;5031175;28;20494;-31
2023/09/10 08:38:36;;;;;;;3.20;2.90;;;;;;;;;;5032255;28;20141;-31
2023/09/10 08:41:08;;;;;;;3.60;2.78;;;22.30;86.40;;;;;;5031649;28;20132;-29
2023/09/10 08:43:40;;;;;;;3.13;2.83;;;22.30;86.40;;;;;;5033322;28;20136;-29
2023/09/10 08:46:09;;;;;;;4.00;3.03;;;21.60;85.60;;;;;;5016365;28;20415;-28
2023/09/10 08:48:36;;;;;;;4.80;2.95;;;;;;;;;;5017303;28;20140;-29
2023/09/10 08:51:03;;;;;;;3.90;3.42;;;;;;;;;;5031168;28;20129;-29
2023/09/10 08:53:31;;;;;;;4.05;3.38;;;22.20;69.70;;;;;;5045881;28;20124;-31
2023/09/10 08:55:58;;;;;;;3.90;3.20;;;22.10;73.60;;;;;;5049862;28;20057;-29
2023/09/10 08:58:25;;;;;;;4.47;3.90;;;22.20;69.70;;;;;;5042217;28;20136;-29
2023/09/10 09:00:52;;;;;;;3.20;2.90;;;;;;;;;;5029874;28;20132;-29
2023/09/10 09:03:19;;;;;;;3.65;3.25;;;;;;;;;;5020735;28;20037;-31
2023/09/10 09:05:47;;;;;;;5.35;3.40;;;22.10;69.90;;;;;;5029798;28;20132;-29
2023/09/10 09:08:16;;;;;;;3.53;3.20;;;22.10;85.30;;;;;;5030235;28;20045;-28
2023/09/10 09:10:44;;;;;;;3.83;2.88;;;23.10;79.00;;;;;;5031854;28;20053;-29
2023/09/10 09:13:12;;;;;;;3.47;3.17;;;22.10;85.80;;;;;;5031744;28;20056;-29
2023/09/10 09:15:39;;;;;;;4.13;3.33;;;22.20;85.00;;;;;;5031473;28;20053;-29
2023/09/10 09:18:07;;;;;;;3.50;3.20;;;22.30;69.80;;;;;;5031610;28;20049;-28
2023/09/10 09:20:34;;;;;;;4.95;2.83;;;21.80;85.30;;;;;;5031865;28;20136;-29
2023/09/10 09:23:04;;;;;;;4.45;3.20;;;21.80;75.60;;;;;;5031596;28;20486;-29
2023/09/10 09:25:30;;;;;;;3.80;3.03;;;22.10;86.30;;;;;;5031756;28;20145;-29
2023/09/10 09:27:58;;;;;;;5.03;2.78;;;23.70;79.90;;;;;;5031418;28;20143;-28
2023/09/10 09:30:26;;;;;;;4.22;3.10;;;21.40;74.40;;;;;;5031521;28;20124;-29
2023/09/10 09:32:52;;;;;;;4.15;2.97;;;23.30;75.20;;;;;;5031611;28;20136;-29
2023/09/10 09:35:19;;;;;;;3.42;3.00;;;;;;;;;;5031200;28;20478;-29
2023/09/10 09:37:46;;;;;;;4.22;2.70;;;22.90;85.80;;;;;;5031108;28;20088;-29
2023/09/10 09:40:13;;;;;;;4.22;2.70;;;22.50;86.30;;;;;;5031244;28;20129;-28
2023/09/10 09:42:40;;;;;;;3.53;2.72;;;22.90;86.60;;;;;;5031520;28;20050;-29
2023/09/10 09:45:09;;;;;;;2.83;2.55;;;;;;;;;;5051337;28;20135;-29
2023/09/10 09:47:36;;;;;;;3.05;2.67;;;22.70;80.10;;;;;;5051363;28;20131;-29
2023/09/10 09:50:03;;;;;;;2.83;2.53;;;21.70;85.10;;;;;;5051311;28;20132;-29
2023/09/10 09:52:30;;;;;;;4.05;2.60;;;22.60;85.80;;;;;;5034231;28;20061;-29
2023/09/10 09:54:57;;;;;;;2.80;2.50;;;22.30;85.70;;;;;;5034734;28;20054;-29
2023/09/10 09:57:24;;;;;;;3.83;2.35;;;;;;;;;;5035187;28;20046;-29
2023/09/10 09:59:50;;;;;;;3.03;2.58;;;21.90;85.40;;;;;;5035071;28;20132;-29
2023/09/10 10:02:19;;;;;;;3.10;2.53;;;22.80;85.00;;;;;;5035147;28;20128;-29
2023/09/10 10:04:45;;;;;;;2.75;2.30;;;22.50;85.10;;;;;;5035078;28;20129;-31
2023/09/10 10:07:12;;;;;;;3.03;2.40;;;23.60;75.20;;;;;;5034443;28;20129;-31
2023/09/10 10:09:41;;;;;;;3.45;2.70;;;21.60;83.90;;;;;;5034783;28;20149;-31
2023/09/10 10:12:08;;;;;;;3.65;2.60;;;22.80;84.50;;;;;;5035081;28;20073;-31
2023/09/10 10:14:35;;;;;;;2.92;2.40;;;23.20;83.80;;;;;;5035024;28;20129;-31
2023/09/10 10:17:03;;;;;;;2.67;2.38;;;22.90;68.60;;;;;;5034678;28;20132;-31
2023/09/10 10:19:31;;;;;;;4.75;2.20;;;22.90;68.50;;;;;;5034406;28;20092;-31
2023/09/10 10:21:58;;;;;;;2.40;2.13;;;22.70;84.30;;;;;;5034607;28;20120;-31
2023/09/10 10:24:25;;;;;;;2.70;2.20;;;23.90;80.20;;;;;;5034588;28;20129;-31
2023/09/10 10:26:52;;;;;;;2.95;2.20;;;;;;;;;;5034462;28;20545;-31
2023/09/10 10:29:19;;;;;;;2.30;2.10;;;23.50;77.90;;;;;;5034216;28;20509;-31
2023/09/10 10:31:47;;;;;;;3.30;2.28;;;23.00;84.10;;;;;;5034967;28;20136;-31
2023/09/10 10:34:16;;;;;;;3.90;2.25;;;23.50;82.90;;;;;;5034552;28;20409;-31
2023/09/10 10:36:49;;;;;;;3.60;2.42;;;23.10;83.70;;;;;;5033771;28;20133;-31
2023/09/10 10:39:16;;;;;;;3.03;2.30;;;22.30;83.40;;;;;;5033679;28;20140;-31
2023/09/10 10:41:46;;;;;;;3.40;2.40;;;22.20;74.90;;;;;;5034450;28;20132;-30
2023/09/10 10:44:18;;;;;;;2.35;2.10;;;23.00;68.10;;;;;;5045874;28;20144;-30
2023/09/10 10:46:45;;;;;;;2.67;2.17;;;;;;;;;;5054177;28;20136;-30
2023/09/10 10:49:12;;;;;;;2.67;2.30;;;23.40;84.10;;;;;;5053638;28;20128;-31
2023/09/10 10:51:41;;;;;;;3.90;2.20;;;22.70;73.10;;;;;;5040393;28;20056;-31
2023/09/10 10:54:09;;;;;;;2.47;2.20;;;23.00;83.50;;;;;;5034077;28;20132;-31
2023/09/10 10:56:36;;;;;;;2.20;2.00;;;23.10;83.20;;;;;;5033804;28;20157;-31
2023/09/10 10:59:02;;;;;;;2.47;2.28;;;23.20;83.40;;;;;;5033890;28;20132;-31
2023/09/10 11:01:29;;;;;;;2.65;2.20;;;23.10;83.20;;;;;;5033842;28;20128;-31
2023/09/10 11:03:56;;;;;;;2.90;2.33;;;23.00;77.70;;;;;;5033722;28;20132;-31
2023/09/10 11:06:23;;;;;;;3.95;2.33;;;23.70;84.20;;;;;;5033644;28;20481;-31
2023/09/10 11:08:49;;;;;;;2.10;1.90;;;23.30;83.00;;;;;;5033711;28;20132;-31
2023/09/10 11:11:50;;;;;;;2.28;2.08;;;22.60;70.20;;;;;;5033881;28;20136;-31
2023/09/10 11:14:16;;;;;;;2.20;1.95;;;24.10;82.90;;;;;;5013983;28;20050;-31
2023/09/10 11:16:43;;;;;;;2.88;2.40;;;23.00;83.60;;;;;;5013737;28;20482;-31
2023/09/10 11:19:31;;;;;;;2.10;1.90;;;23.80;71.70;;;;;;5014075;28;20086;-31
2023/09/10 11:22:01;;;;;;;2.88;2.50;;;23.60;83.00;;;;;;5013714;28;20049;-31
2023/09/10 11:24:30;;;;;;;2.38;2.17;;;24.00;83.20;;;;;;5013654;28;20128;-31
2023/09/10 11:27:23;;;;;;;2.40;2.20;;;23.10;83.40;;;;;;5013763;28;20136;-31
2023/09/10 11:30:09;;;;;;;2.88;2.40;;;23.40;82.70;;;;;;5028506;28;20128;-31
2023/09/10 11:32:36;;;;;;;2.85;2.33;;;23.70;83.70;;;;;;5033516;28;20137;-31
2023/09/10 11:35:22;;;;;;;2.60;2.10;;;23.50;67.20;;;;;;5033322;28;20129;-31
2023/09/10 11:37:49;;;;;;;2.75;2.20;;;23.50;67.30;;;;;;5032692;28;20128;-31
2023/09/10 11:40:17;;;;;;;2.47;2.20;;;22.90;82.80;;;;;;5033360;28;20132;-31
2023/09/10 11:42:46;;;;;;;2.20;2.00;;;23.30;82.80;;;;;;5033626;28;20048;-29
2023/09/10 11:45:13;;;;;;;2.75;2.20;;;;;;;;;;5044160;28;20120;-29
2023/09/10 11:47:41;;;;;;;2.20;2.00;;;23.50;82.80;;;;;;5032952;28;20136;-28
2023/09/10 11:50:09;;;;;;;2.38;2.17;;;23.30;82.80;;;;;;5033101;28;20133;-29
2023/09/10 11:52:35;;;;;;;2.25;2.03;;;23.40;78.80;;;;;;5033076;28;20152;-29
2023/09/10 11:55:02;;;;;;;2.83;2.13;;;;;;;;;;5033042;28;20124;-29
2023/09/10 11:57:30;;;;;;;2.30;2.10;;;;;;;;;;5032718;28;20132;-29
2023/09/10 11:59:58;;;;;;;2.20;2.00;;;23.30;82.90;;;;;;5032704;28;20132;-29
2023/09/10 12:02:25;;;;;;;2.45;2.10;;;23.50;83.30;;;;;;5032676;28;20073;-31
2023/09/10 12:04:52;;;;;;;2.85;2.00;;;;;;;;;;5032382;28;20498;-30
2023/09/10 12:07:20;;;;;;;2.58;2.00;;;22.40;82.60;;;;;;5032798;28;20470;-28
2023/09/10 12:09:46;;;;;;;2.20;2.00;;;24.00;83.50;;;;;;5032620;28;20474;-29
2023/09/10 12:12:14;;;;;;;2.30;2.00;;;23.10;83.50;;;;;;5032747;28;20137;-31
2023/09/10 12:14:41;;;;;;;2.40;2.20;;;23.20;76.80;;;;;;5032493;28;20585;-31
2023/09/10 12:17:09;;;;;;;2.65;2.20;;;23.20;83.40;;;;;;5032240;28;20076;-31
2023/09/10 12:19:36;;;;;;;2.30;2.10;;;24.10;79.50;;;;;;5032260;28;20057;-31
2023/09/10 12:22:09;;;;;;;2.10;1.90;;;23.30;83.00;;;;;;5032495;28;20128;-31
2023/09/10 12:24:36;;;;;;;2.20;2.00;;;23.20;82.70;;;;;;5032656;28;20060;-31
2023/09/10 12:27:03;;;;;;;2.40;2.20;;;;;;;;;;5031999;28;20140;-31
2023/09/10 12:29:30;;;;;;;2.20;2.00;;;23.60;82.70;;;;;;5032504;28;20060;-31
2023/09/10 12:31:57;;;;;;;2.33;2.10;;;;;;;;;;5032292;28;20136;-31
2023/09/10 12:34:25;;;;;;;2.28;2.08;;;23.60;83.50;;;;;;5032180;28;20457;-31
2023/09/10 12:36:52;;;;;;;2.10;1.90;;;23.60;83.50;;;;;;5031338;28;20152;-30
2023/09/10 12:39:19;;;;;;;2.10;1.80;;;23.60;67.10;;;;;;5032151;28;20128;-30
2023/09/10 12:41:48;;;;;;;2.30;2.10;;;23.80;74.60;;;;;;5032025;28;20057;-31
2023/09/10 12:44:15;;;;;;;2.17;1.98;;;23.90;83.20;;;;;;5032013;28;20049;-29
2023/09/10 12:46:43;;;;;;;2.50;2.15;;;23.70;76.80;;;;;;5032081;28;20132;-29
2023/09/10 12:49:10;;;;;;;2.58;2.00;;;24.60;83.80;;;;;;5031573;28;20536;-29
2023/09/10 12:51:38;;;;;;;2.33;2.10;;;23.70;67.20;;;;;;5032356;28;20149;-30
2023/09/10 12:54:05;;;;;;;2.53;2.28;;;;;;;;;;5031742;28;20128;-30
2023/09/10 12:56:32;;;;;;;2.13;1.92;;;23.50;82.40;;;;;;5032207;28;20136;-29
2023/09/10 12:59:00;;;;;;;2.60;2.25;;;;;;;;;;5031835;28;20054;-29
2023/09/10 13:01:26;;;;;;;2.20;2.00;;;23.00;82.50;;;;;;5031932;28;20132;-28
2023/09/10 13:03:53;;;;;;;2.20;2.00;;;;;;;;;;5031627;28;20557;-30
2023/09/10 13:06:20;;;;;;;2.30;2.10;;;23.80;82.50;;;;;;5031296;28;20481;-29
2023/09/10 13:08:48;;;;;;;2.15;1.95;;;23.40;70.80;;;;;;5031501;28;20521;-31
2023/09/10 13:11:15;;;;;;;2.20;2.00;;;23.80;82.40;;;;;;5032105;28;20136;-31